createdAt,value
2023-04-18T00:04:18.243Z,10.54
2023-04-18T00:09:11.892Z,10.55
2023-04-18T00:14:08.247Z,10.35
2023-04-18T00:19:04.679Z,10.28
2023-04-18T00:23:57.895Z,10.52
2023-04-18T00:28:52.458Z,10.34
2023-04-18T00:33:45.725Z,9.87
2023-04-18T00:38:40.857Z,10.05
2023-04-18T00:43:38.102Z,10.28
2023-04-18T00:48:31.849Z,10.45
2023-04-18T00:53:25.477Z,10.42
2023-04-18T00:58:22.559Z,10.41
2023-04-18T01:03:20.818Z,10.13
2023-04-18T01:08:14.031Z,10.39
2023-04-18T01:13:14.622Z,10.37
2023-04-18T01:18:09.594Z,10.37
2023-04-18T01:23:05.337Z,10.35
2023-04-18T01:28:04.735Z,10.29
2023-04-18T01:32:57.947Z,10.39
2023-04-18T01:37:53.723Z,9.66
2023-04-18T01:42:51.428Z,10.38
2023-04-18T01:47:51.416Z,9.74
2023-04-18T01:52:44.828Z,10.09
2023-04-18T01:57:38.443Z,10.32
2023-04-18T02:02:36.505Z,10.31
2023-04-18T02:07:33.779Z,10.03
2023-04-18T02:12:31.509Z,10.13
2023-04-18T02:17:25.414Z,9.26
2023-04-18T02:22:22.953Z,9.89
2023-04-18T02:27:17.904Z,10.24
2023-04-18T02:32:11.695Z,9.72
2023-04-18T02:37:05.020Z,9.65
2023-04-18T02:42:04.141Z,9.87
2023-04-18T02:46:58.756Z,10.22
2023-04-18T02:51:57.694Z,10.20
2023-04-18T02:56:50.789Z,10.18
2023-04-18T03:01:51.592Z,10.17
2023-04-18T03:06:49.079Z,9.90
2023-04-18T03:11:43.427Z,10.14
2023-04-18T03:16:36.851Z,10.12
2023-04-18T03:21:32.655Z,10.13
2023-04-18T03:26:29.240Z,10.10
2023-04-18T03:31:23.717Z,10.01
2023-04-18T03:36:18.472Z,10.09
2023-04-18T03:41:12.470Z,10.09
2023-04-18T03:46:07.195Z,9.91
2023-04-18T03:51:00.926Z,10.06
2023-04-18T03:55:54.355Z,10.09
2023-04-18T04:00:51.902Z,10.19
2023-04-18T04:05:47.177Z,9.94
2023-04-18T04:10:42.329Z,9.41
2023-04-18T04:15:38.248Z,9.97
2023-04-18T04:20:33.554Z,10.31
2023-04-18T04:25:36.646Z,10.33
2023-04-18T04:30:35.108Z,10.08
2023-04-18T04:35:28.963Z,10.11
2023-04-18T04:40:23.076Z,10.45
2023-04-18T04:45:23.484Z,10.48
2023-04-18T04:50:19.865Z,10.32
2023-04-18T04:55:13.226Z,10.54
2023-04-18T05:00:09.063Z,10.61
2023-04-18T05:05:03.935Z,10.63
2023-04-18T05:09:56.982Z,10.68
2023-04-18T05:14:52.899Z,10.76
2023-04-18T05:19:46.168Z,10.83
2023-04-18T05:24:41.287Z,10.89
2023-04-18T05:29:34.678Z,10.69
2023-04-18T05:34:27.796Z,10.92
2023-04-18T05:39:21.045Z,11.33
2023-04-18T05:44:18.423Z,11.40
2023-04-18T05:49:11.835Z,11.42
2023-04-18T05:54:05.601Z,11.61
2023-04-18T05:58:59.338Z,11.37
2023-04-18T06:03:53.956Z,11.67
2023-04-18T06:08:47.377Z,11.68
2023-04-18T06:13:41.065Z,11.96
2023-04-18T06:18:37.011Z,11.93
2023-04-18T06:23:31.657Z,12.04
2023-04-18T06:28:25.132Z,12.24
2023-04-18T06:33:20.456Z,12.17
2023-04-18T06:38:13.642Z,12.47
2023-04-18T06:43:08.309Z,12.31
2023-04-18T06:48:04.461Z,11.94
2023-04-18T06:53:00.605Z,12.36
2023-04-18T06:57:54.314Z,12.50
2023-04-18T07:02:49.664Z,12.48
2023-04-18T07:07:50.940Z,12.58
2023-04-18T07:12:44.131Z,12.60
2023-04-18T07:17:37.428Z,12.66
2023-04-18T07:22:32.166Z,12.87
2023-04-18T07:27:26.041Z,13.21
2023-04-18T07:32:23.196Z,13.58
2023-04-18T07:37:18.401Z,13.62
2023-04-18T07:42:12.973Z,13.63
2023-04-18T07:47:10.088Z,13.36
2023-04-18T07:52:03.580Z,13.51
2023-04-18T07:56:56.793Z,13.81
2023-04-18T08:01:52.389Z,13.95
2023-04-18T08:06:45.681Z,13.91
2023-04-18T08:11:39.114Z,13.93
2023-04-18T08:16:32.504Z,13.95
2023-04-18T08:21:27.253Z,13.74
2023-04-18T08:26:21.987Z,14.10
2023-04-18T08:31:15.398Z,14.06
2023-04-18T08:36:14.398Z,14.41
2023-04-18T08:41:09.892Z,14.23
2023-04-18T08:46:03.226Z,14.44
2023-04-18T08:50:59.136Z,14.29
2023-04-18T08:55:58.064Z,14.51
2023-04-18T09:00:53.453Z,14.61
2023-04-18T09:06:11.616Z,14.56
2023-04-18T09:11:29.940Z,14.56
2023-04-18T09:16:25.076Z,14.28
2023-04-18T09:21:19.921Z,14.63
2023-04-18T09:26:13.661Z,14.63
2023-04-18T09:31:11.923Z,14.67
2023-04-18T09:36:20.943Z,14.83
2023-04-18T09:41:15.878Z,14.77
2023-04-18T09:46:09.895Z,15.23
2023-04-18T09:51:07.627Z,15.32
2023-04-18T09:56:04.218Z,15.09
2023-04-18T10:00:58.127Z,14.71
2023-04-18T10:05:52.355Z,14.50
2023-04-18T10:10:45.686Z,14.84
2023-04-18T10:15:42.331Z,15.17
2023-04-18T10:20:37.128Z,15.15
2023-04-18T10:25:51.500Z,15.11
2023-04-18T10:30:54.593Z,14.46
2023-04-18T10:36:00.191Z,14.56
2023-04-18T10:41:16.925Z,14.81
2023-04-18T10:46:30.353Z,14.88
2023-04-18T10:51:24.883Z,14.62
2023-04-18T10:56:20.991Z,14.90
2023-04-18T11:01:17.205Z,14.91
2023-04-18T11:06:10.543Z,15.01
2023-04-18T11:11:07.056Z,15.24
2023-04-18T11:16:00.377Z,15.42
2023-04-18T11:20:55.488Z,15.54
2023-04-18T11:25:52.037Z,15.41
2023-04-18T11:30:45.260Z,15.62
2023-04-18T11:35:42.280Z,15.38
2023-04-18T11:40:37.315Z,15.56
2023-04-18T11:45:33.970Z,15.54
2023-04-18T11:50:27.911Z,15.47
2023-04-18T11:55:24.651Z,15.24
2023-04-18T12:00:21.506Z,15.31
2023-04-18T12:05:26.623Z,14.52
2023-04-18T12:10:29.848Z,15.29
2023-04-18T12:15:27.345Z,15.31
2023-04-18T12:20:24.884Z,15.01
2023-04-18T12:25:27.350Z,15.52
2023-04-18T12:30:22.179Z,15.18
2023-04-18T12:35:17.022Z,15.50
2023-04-18T12:40:11.145Z,15.44
2023-04-18T12:45:07.835Z,15.45
2023-04-18T12:50:01.113Z,15.54
2023-04-18T12:55:02.022Z,15.47
2023-04-18T12:59:55.268Z,15.63
2023-04-18T13:04:48.856Z,15.82
2023-04-18T13:09:56.143Z,15.32
2023-04-18T13:14:59.585Z,15.84
2023-04-18T13:19:59.020Z,15.94
2023-04-18T13:24:52.391Z,15.95
2023-04-18T13:29:46.930Z,15.97
2023-04-18T13:34:46.555Z,15.67
2023-04-18T13:39:40.744Z,15.97
2023-04-18T13:44:34.317Z,15.93
2023-04-18T13:49:28.383Z,15.54
2023-04-18T13:54:26.653Z,15.88
2023-04-18T13:59:31.240Z,15.50
2023-04-18T14:04:27.043Z,15.46
2023-04-18T14:09:23.184Z,15.76
2023-04-18T14:14:16.478Z,15.91
2023-04-18T14:19:10.479Z,16.11
2023-04-18T14:24:04.330Z,16.19
2023-04-18T14:29:03.295Z,15.28
2023-04-18T14:40:35.652Z,15.85
2023-04-18T14:45:35.770Z,16.60
2023-04-18T14:50:32.097Z,16.25
2023-04-18T14:55:25.625Z,16.55
2023-04-18T15:00:19.569Z,16.54
2023-04-18T15:05:14.734Z,16.26
2023-04-18T15:10:12.711Z,16.42
2023-04-18T15:15:07.173Z,16.15
2023-04-18T15:20:10.242Z,15.89
2023-04-18T15:25:05.931Z,16.04
2023-04-18T15:29:59.260Z,16.32
2023-04-18T15:34:52.890Z,16.43
2023-04-18T15:39:49.421Z,16.38
2023-04-18T15:44:44.192Z,16.32
2023-04-18T15:49:37.357Z,16.03
2023-04-18T15:54:30.546Z,16.19
2023-04-18T15:59:23.775Z,16.10
2023-04-18T16:04:21.736Z,15.94
2023-04-18T16:09:17.766Z,15.94
2023-04-18T16:14:11.000Z,15.42
2023-04-18T16:19:04.479Z,15.53
2023-04-18T16:23:59.295Z,15.64
2023-04-18T16:28:52.824Z,15.45
2023-04-18T16:33:46.370Z,15.24
2023-04-18T16:38:39.622Z,15.61
2023-04-18T16:43:36.552Z,15.66
2023-04-18T16:48:30.229Z,15.21
2023-04-18T16:53:24.023Z,15.16
2023-04-18T16:58:17.287Z,15.31
2023-04-18T17:03:11.871Z,15.50
2023-04-18T17:08:05.378Z,15.34
2023-04-18T17:12:59.241Z,15.35
2023-04-18T17:17:52.573Z,15.44
2023-04-18T17:22:49.445Z,15.21
2023-04-18T17:27:45.856Z,14.53
2023-04-18T17:32:43.016Z,15.26
2023-04-18T17:37:36.637Z,15.11
2023-04-18T17:42:31.224Z,15.18
2023-04-18T17:47:24.476Z,15.03
2023-04-18T17:52:18.122Z,15.08
2023-04-18T17:57:11.676Z,15.07
2023-04-18T18:02:06.399Z,14.95
2023-04-18T18:07:00.136Z,15.21
2023-04-18T18:11:55.808Z,15.23
2023-04-18T18:16:53.236Z,14.64
2023-04-18T18:21:50.234Z,15.09
2023-04-18T18:26:43.652Z,15.18
2023-04-18T18:31:37.024Z,15.16
2023-04-18T18:36:30.350Z,15.07
2023-04-18T18:41:25.094Z,15.09
2023-04-18T18:46:18.680Z,14.94
2023-04-18T18:51:12.312Z,14.81
2023-04-18T18:56:07.984Z,14.73
2023-04-18T19:01:03.500Z,14.82
2023-04-18T19:05:56.973Z,14.63
2023-04-18T19:10:50.756Z,14.49
2023-04-18T19:15:47.719Z,14.67
2023-04-18T19:20:42.684Z,14.27
2023-04-18T19:25:40.013Z,13.85
2023-04-18T19:30:33.362Z,14.57
2023-04-18T19:35:26.678Z,14.29
2023-04-18T19:40:23.769Z,14.47
2023-04-18T19:45:18.704Z,14.43
2023-04-18T19:50:12.529Z,14.37
2023-04-18T19:55:06.365Z,13.38
2023-04-18T20:00:03.726Z,14.26
2023-04-18T20:05:06.910Z,14.05
2023-04-18T20:10:00.598Z,14.15
2023-04-18T20:14:56.077Z,13.52
2023-04-18T20:19:51.104Z,13.91
2023-04-18T20:24:45.097Z,13.97
2023-04-18T20:29:38.341Z,13.77
2023-04-18T20:34:34.313Z,13.63
2023-04-18T20:39:29.292Z,13.64
2023-04-18T20:44:22.688Z,13.32
2023-04-18T20:49:16.498Z,13.48
2023-04-18T20:54:09.869Z,13.36
2023-04-18T20:59:07.850Z,12.83
2023-04-18T21:04:04.061Z,12.99
2023-04-18T21:08:57.275Z,13.39
2023-04-18T21:13:50.506Z,13.29
2023-04-18T21:18:49.084Z,12.67
2023-04-18T21:23:52.152Z,13.14
2023-04-18T21:29:07.870Z,12.88
2023-04-18T21:34:05.037Z,12.78
2023-04-18T21:39:00.543Z,12.93
2023-04-18T21:43:57.263Z,11.89
2023-04-18T21:48:50.504Z,12.84
2023-04-18T21:53:45.161Z,12.53
2023-04-18T21:58:38.276Z,12.64
2023-04-18T22:03:31.701Z,12.17
2023-04-18T22:08:25.853Z,12.70
2023-04-18T22:13:23.594Z,12.65
2023-04-18T22:18:19.469Z,12.62
2023-04-18T22:23:12.797Z,12.00
2023-04-18T22:28:06.287Z,12.58
2023-04-18T22:33:00.996Z,11.88
2023-04-18T22:37:54.346Z,12.33
2023-04-18T22:42:49.118Z,12.19
2023-04-18T22:47:42.398Z,12.21
2023-04-18T22:52:37.260Z,12.26
2023-04-18T22:57:30.437Z,12.20
2023-04-18T23:02:25.644Z,11.50
2023-04-18T23:07:18.917Z,11.77
2023-04-18T23:12:13.475Z,11.84
2023-04-18T23:17:07.668Z,11.70
2023-04-18T23:22:01.192Z,11.56
2023-04-18T23:26:54.303Z,11.49
2023-04-18T23:31:48.958Z,11.10
2023-04-18T23:36:42.420Z,11.39
2023-04-18T23:41:35.689Z,10.69
2023-04-18T23:46:29.043Z,11.13
2023-04-18T23:51:23.571Z,10.98
2023-04-18T23:56:16.644Z,11.23
